Time;durP1;ratioP1;P1;durP2;ratioP2;P2;SDS_P1;SDS_P2;PMS_P1;PMS_P2;Temp;Humidity;BMP_temperature;BMP_pressure;BME280_temperature;BME280_humidity;BME280_pressure;Samples;Min_cycle;Max_cycle;Signal;HPM_P1;HPM_P2
2022/07/14 00:00:32;;;;;;;8.40;5.30;;;23.60;64.60;;;;;;5050264;28;20472;-88
2022/07/14 00:03:00;;;;;;;7.63;5.10;;;23.60;64.90;;;;;;5052011;28;20460;-88
2022/07/14 00:05:27;;;;;;;5.17;4.30;;;23.50;65.10;;;;;;5052270;28;20441;-87
2022/07/14 00:07:54;;;;;;;11.90;6.03;;;23.50;65.50;;;;;;5052397;28;20453;-88
2022/07/14 00:10:20;;;;;;;8.17;5.93;;;23.40;65.90;;;;;;5051790;28;20476;-88
2022/07/14 00:12:47;;;;;;;8.00;5.20;;;23.40;66.10;;;;;;5059143;28;20448;-87
2022/07/14 00:15:14;;;;;;;9.33;5.70;;;23.30;66.90;;;;;;5055284;28;20776;-87
2022/07/14 00:17:41;;;;;;;7.33;5.90;;;23.20;66.90;;;;;;5045333;28;20442;-87
2022/07/14 00:20:10;;;;;;;7.70;5.70;;;23.30;67.20;;;;;;5047241;28;20484;-88
2022/07/14 00:22:37;;;;;;;11.43;7.20;;;23.30;67.40;;;;;;5055500;28;20456;-88
2022/07/14 00:25:04;;;;;;;9.70;5.50;;;23.30;67.90;;;;;;5051002;28;20437;-87
2022/07/14 00:27:31;;;;;;;6.10;5.40;;;23.30;67.90;;;;;;5051775;28;20441;-88
2022/07/14 00:29:57;;;;;;;9.20;6.27;;;23.20;67.40;;;;;;5051431;28;20469;-87
2022/07/14 00:32:24;;;;;;;8.03;5.80;;;23.10;67.40;;;;;;5051653;28;20456;-87
2022/07/14 00:34:51;;;;;;;10.83;5.63;;;23.10;68.10;;;;;;5051612;28;20958;-87
2022/07/14 00:37:19;;;;;;;8.53;5.97;;;23.10;68.50;;;;;;5050587;28;20536;-87
2022/07/14 00:40:00;;;;;;;6.83;4.83;;;23.10;68.80;;;;;;5065137;28;21015;-87
2022/07/14 00:42:33;;;;;;;11.03;5.67;;;23.00;68.80;;;;;;5053741;28;20472;-86
2022/07/14 00:45:00;;;;;;;7.03;4.53;;;23.00;69.10;;;;;;5047837;28;20445;-87
2022/07/14 00:47:27;;;;;;;6.27;5.03;;;23.00;69.30;;;;;;5045047;28;20469;-87
2022/07/14 00:49:55;;;;;;;9.07;6.03;;;23.00;69.40;;;;;;5050114;28;20448;-87
2022/07/14 00:52:24;;;;;;;7.33;5.67;;;23.00;69.60;;;;;;5049614;28;20538;-87
2022/07/14 00:54:51;;;;;;;9.23;5.83;;;22.90;69.90;;;;;;5058831;28;20432;-87
2022/07/14 00:57:19;;;;;;;4.90;4.40;;;22.90;69.10;;;;;;5068140;28;20440;-87
2022/07/14 00:59:46;;;;;;;9.33;5.30;;;22.90;69.30;;;;;;5047047;28;20477;-87
2022/07/14 01:02:13;;;;;;;7.13;5.20;;;22.80;70.00;;;;;;5046990;28;20475;-87
2022/07/14 01:04:40;;;;;;;8.27;3.90;;;22.70;70.50;;;;;;5051112;28;20894;-87
2022/07/14 01:07:06;;;;;;;5.77;3.43;;;22.60;70.20;;;;;;5053070;28;20421;-87
2022/07/14 01:09:34;;;;;;;4.77;3.37;;;22.70;69.50;;;;;;5052852;28;20433;-87
2022/07/14 01:12:01;;;;;;;4.67;3.23;;;22.60;69.90;;;;;;5058090;28;20457;-87
2022/07/14 01:14:28;;;;;;;4.07;3.40;;;22.60;70.20;;;;;;5054395;28;20441;-87
2022/07/14 01:16:55;;;;;;;5.63;3.27;;;22.50;70.30;;;;;;5071507;28;20425;-86
2022/07/14 01:19:22;;;;;;;4.97;3.80;;;22.40;70.90;;;;;;5073236;28;21062;-86
2022/07/14 01:21:51;;;;;;;6.83;3.77;;;22.40;71.50;;;;;;5075756;28;20453;-86
2022/07/14 01:24:18;;;;;;;7.50;3.80;;;22.40;72.00;;;;;;5075484;28;20445;-87
2022/07/14 01:26:45;;;;;;;5.50;3.77;;;22.30;72.10;;;;;;5054368;28;20441;-87
2022/07/14 01:29:11;;;;;;;3.87;3.20;;;22.20;72.10;;;;;;5048914;28;20442;-87
2022/07/14 01:31:38;;;;;;;4.47;3.87;;;22.10;72.50;;;;;;5044158;28;20580;-87
2022/07/14 01:34:05;;;;;;;5.47;4.23;;;22.10;73.10;;;;;;5052465;28;20457;-87
2022/07/14 01:36:32;;;;;;;3.57;3.10;;;22.00;73.60;;;;;;5051817;28;20444;-87
2022/07/14 01:39:00;;;;;;;3.83;2.60;;;22.00;73.80;;;;;;5046802;28;20468;-87
2022/07/14 01:41:27;;;;;;;6.10;3.13;;;21.90;74.10;;;;;;5042588;28;20500;-87
2022/07/14 01:43:54;;;;;;;4.80;3.70;;;21.80;74.30;;;;;;5042563;28;20454;-87
2022/07/14 01:46:21;;;;;;;6.07;3.70;;;21.80;74.80;;;;;;5050672;28;20463;-87
2022/07/14 01:48:48;;;;;;;4.20;3.07;;;21.60;75.30;;;;;;5050975;28;20449;-87
2022/07/14 01:51:14;;;;;;;6.47;3.67;;;21.60;75.80;;;;;;5064009;28;20465;-87
2022/07/14 01:53:42;;;;;;;4.60;3.63;;;21.60;76.10;;;;;;5072245;28;20441;-87
2022/07/14 01:56:10;;;;;;;5.50;3.80;;;21.50;76.60;;;;;;5065665;28;20442;-87
2022/07/14 01:58:38;;;;;;;6.63;3.57;;;21.50;77.00;;;;;;5073039;28;20432;-87
2022/07/14 02:03:55;;;;;;;5.20;4.13;;;21.40;78.40;;;;;;5054333;28;20526;-90
2022/07/14 02:06:22;;;;;;;6.60;4.77;;;21.40;79.50;;;;;;5059877;28;20475;-90
2022/07/14 02:08:49;;;;;;;4.73;4.23;;;21.30;80.00;;;;;;5052259;28;20821;-92
2022/07/14 02:14:01;;;;;;;5.30;4.20;;;21.30;81.50;;;;;;5050757;28;20424;-89
2022/07/14 02:16:28;;;;;;;7.20;5.13;;;21.20;82.30;;;;;;5055991;28;20437;-90
2022/07/14 02:18:55;;;;;;;5.80;4.97;;;21.10;82.70;;;;;;5053172;28;20445;-89
2022/07/14 02:21:21;;;;;;;6.07;4.80;;;20.90;83.80;;;;;;5050873;28;20591;-90
2022/07/14 02:23:48;;;;;;;7.03;5.13;;;20.90;84.50;;;;;;5052633;28;20437;-90
2022/07/14 02:26:16;;;;;;;7.90;5.33;;;20.80;85.60;;;;;;5058255;28;20435;-89
2022/07/14 02:28:43;;;;;;;13.73;4.93;;;20.70;86.40;;;;;;5052750;28;20528;-90
2022/07/14 02:31:10;;;;;;;6.40;4.90;;;20.70;87.10;;;;;;5054892;28;21029;-90
2022/07/14 02:33:37;;;;;;;7.83;5.17;;;20.60;88.00;;;;;;5054971;28;20436;-90
2022/07/14 02:36:05;;;;;;;9.33;4.60;;;20.60;88.80;;;;;;5074791;28;20448;-90
2022/07/14 02:38:32;;;;;;;4.43;4.07;;;20.60;89.00;;;;;;5051003;28;20440;-91
2022/07/14 02:40:59;;;;;;;6.33;4.30;;;20.50;90.00;;;;;;5050022;28;20480;-90
2022/07/14 02:43:27;;;;;;;5.40;4.20;;;20.50;90.20;;;;;;5051228;28;20448;-89
2022/07/14 02:45:54;;;;;;;5.27;4.40;;;20.50;90.40;;;;;;5050485;28;20441;-90
2022/07/14 02:48:21;;;;;;;6.73;4.87;;;20.50;90.50;;;;;;5049348;28;20524;-89
2022/07/14 02:50:47;;;;;;;7.50;4.60;;;20.40;90.90;;;;;;5052488;28;20437;-90
2022/07/14 02:53:14;;;;;;;8.40;4.33;;;20.40;91.20;;;;;;5047162;28;20471;-89
2022/07/14 02:55:41;;;;;;;13.57;5.60;;;20.30;91.50;;;;;;5050139;28;20440;-90
2022/07/14 02:58:08;;;;;;;6.60;5.20;;;20.40;91.70;;;;;;5050076;28;20441;-90
2022/07/14 03:00:36;;;;;;;8.83;4.10;;;20.40;91.80;;;;;;5047713;28;20480;-90
2022/07/14 03:03:05;;;;;;;7.87;4.83;;;20.40;92.10;;;;;;5053861;28;20833;-90
2022/07/14 03:05:32;;;;;;;5.90;4.53;;;20.30;92.30;;;;;;5056851;28;20467;-90
2022/07/14 03:07:58;;;;;;;9.00;5.13;;;20.30;92.70;;;;;;5068650;28;20429;-90
2022/07/14 03:10:25;;;;;;;10.83;4.93;;;20.30;92.80;;;;;;5074158;28;20431;-90
2022/07/14 03:12:52;;;;;;;5.63;4.90;;;20.20;93.00;;;;;;5075230;28;20445;-92
2022/07/14 03:15:19;;;;;;;5.40;4.80;;;20.10;93.30;;;;;;5071262;28;20459;-90
2022/07/14 03:17:47;;;;;;;6.23;5.43;;;20.10;93.60;;;;;;5067681;28;20437;-90
2022/07/14 03:20:14;;;;;;;5.27;4.80;;;20.10;93.80;;;;;;5062286;28;20470;-90
2022/07/14 03:22:41;;;;;;;7.27;4.40;;;20.00;94.50;;;;;;5055704;28;20487;-91
2022/07/14 03:25:09;;;;;;;7.30;4.93;;;20.00;94.60;;;;;;5062234;28;20441;-90
2022/07/14 03:27:36;;;;;;;7.13;5.00;;;19.90;95.00;;;;;;5054843;28;20446;-89
2022/07/14 03:30:02;;;;;;;9.93;5.93;;;19.90;95.50;;;;;;5055919;28;20437;-89
2022/07/14 03:32:29;;;;;;;6.80;5.03;;;19.90;95.70;;;;;;5052092;28;20483;-90
2022/07/14 03:34:57;;;;;;;4.97;4.47;;;19.90;96.00;;;;;;5058661;28;20467;-90
2022/07/14 03:37:24;;;;;;;9.27;5.03;;;19.80;96.30;;;;;;5056293;28;20436;-91
2022/07/14 03:39:51;;;;;;;7.40;5.40;;;19.80;96.60;;;;;;5058445;28;20989;-90
2022/07/14 03:42:18;;;;;;;7.57;5.20;;;19.80;96.70;;;;;;5058452;28;20473;-90
2022/07/14 03:44:45;;;;;;;6.27;4.93;;;19.80;96.80;;;;;;5046432;28;20456;-90
2022/07/14 03:47:20;;;;;;;6.93;4.93;;;19.80;97.10;;;;;;5045104;28;20473;-90
2022/07/14 03:49:47;;;;;;;5.50;4.67;;;19.80;97.20;;;;;;5052873;28;20444;-90
2022/07/14 03:52:15;;;;;;;7.97;5.13;;;19.80;97.20;;;;;;5048733;28;20477;-90
2022/07/14 03:54:44;;;;;;;5.53;4.23;;;19.80;97.70;;;;;;5063784;28;20790;-90
2022/07/14 03:57:11;;;;;;;4.37;3.70;;;19.80;97.50;;;;;;5050786;28;20996;-90
2022/07/14 03:59:40;;;;;;;6.00;4.60;;;19.80;97.60;;;;;;5046040;28;20449;-90
2022/07/14 04:02:07;;;;;;;5.87;3.70;;;19.80;97.70;;;;;;5050571;28;20866;-90
2022/07/14 04:04:34;;;;;;;6.07;4.00;;;19.70;98.30;;;;;;5051933;28;20655;-90
2022/07/14 04:07:01;;;;;;;7.80;4.70;;;19.70;98.60;;;;;;5053348;28;20809;-90
2022/07/14 04:09:29;;;;;;;7.83;5.07;;;19.80;98.90;;;;;;5052242;28;20441;-91
2022/07/14 04:11:56;;;;;;;6.07;5.33;;;19.70;99.20;;;;;;5052368;28;20471;-90
2022/07/14 04:14:23;;;;;;;9.53;5.00;;;19.70;99.40;;;;;;5048058;28;20793;-90
2022/07/14 04:16:50;;;;;;;8.03;4.10;;;19.70;99.60;;;;;;5064101;28;20444;-90
2022/07/14 04:19:17;;;;;;;6.17;4.60;;;19.70;99.80;;;;;;5071941;28;20532;-90
2022/07/14 04:21:44;;;;;;;6.33;4.40;;;19.70;99.80;;;;;;5056202;28;21744;-90
2022/07/14 04:24:11;;;;;;;11.10;5.50;;;19.70;99.80;;;;;;5053839;28;20532;-90
2022/07/14 04:26:40;;;;;;;10.33;5.77;;;19.70;99.90;;;;;;5049105;28;20452;-91
2022/07/14 04:29:06;;;;;;;5.90;5.27;;;19.70;99.80;;;;;;5053111;28;21005;-89
2022/07/14 04:31:34;;;;;;;7.97;4.50;;;19.80;99.80;;;;;;5053097;28;21293;-89
2022/07/14 04:34:01;;;;;;;7.03;5.20;;;19.80;99.80;;;;;;5052776;28;20973;-90
2022/07/14 04:36:28;;;;;;;5.40;4.90;;;19.80;99.70;;;;;;5051550;28;20847;-90
2022/07/14 04:38:56;;;;;;;8.50;4.77;;;19.80;99.90;;;;;;5053171;28;20433;-91
2022/07/14 04:41:23;;;;;;;8.03;5.27;;;19.80;99.60;;;;;;5047246;28;20477;-90
2022/07/14 04:43:52;;;;;;;13.10;6.37;;;19.90;99.50;;;;;;5052805;28;20440;-90
2022/07/14 04:46:19;;;;;;;7.97;5.07;;;19.90;99.60;;;;;;5066799;28;20508;-92
2022/07/14 04:54:14;;;;;;;6.70;5.17;;;20.00;99.20;;;;;;5061306;28;20466;-91
2022/07/14 04:56:41;;;;;;;8.50;4.63;;;20.00;99.00;;;;;;5065960;28;20445;-90
2022/07/14 04:59:09;;;;;;;6.80;4.87;;;20.10;98.60;;;;;;5071382;28;20448;-90
2022/07/14 05:01:36;;;;;;;13.27;5.63;;;20.20;98.60;;;;;;5060915;28;20473;-89
2022/07/14 05:04:03;;;;;;;11.17;5.60;;;20.20;98.20;;;;;;5052089;28;20452;-90
2022/07/14 05:06:30;;;;;;;7.00;6.20;;;20.20;98.10;;;;;;5048812;28;20460;-90
2022/07/14 05:08:56;;;;;;;6.63;5.57;;;20.20;98.00;;;;;;5076270;28;20730;-90
2022/07/14 05:11:23;;;;;;;9.57;5.00;;;20.40;97.80;;;;;;5064758;28;20432;-89
2022/07/14 05:13:52;;;;;;;10.40;5.60;;;20.40;97.40;;;;;;5074705;28;20425;-91
2022/07/14 05:16:21;;;;;;;10.10;6.70;;;20.40;97.20;;;;;;5055416;28;20524;-90
2022/07/14 05:18:48;;;;;;;10.83;5.90;;;20.50;97.20;;;;;;5053407;28;20531;-90
2022/07/14 05:21:15;;;;;;;10.50;7.00;;;20.80;96.90;;;;;;5060913;28;20495;-89
2022/07/14 05:23:42;;;;;;;8.33;6.70;;;21.40;95.90;;;;;;5059634;28;20437;-90
2022/07/14 05:26:11;;;;;;;7.10;5.77;;;22.00;94.30;;;;;;5048769;28;20473;-90
2022/07/14 05:28:38;;;;;;;8.90;5.40;;;22.60;92.90;;;;;;5052680;28;20441;-90
2022/07/14 05:31:05;;;;;;;7.70;5.17;;;23.10;91.60;;;;;;5052344;28;20702;-90
2022/07/14 05:33:33;;;;;;;10.13;7.07;;;23.50;90.40;;;;;;5052380;28;20809;-91
2022/07/14 05:36:00;;;;;;;7.77;6.17;;;24.20;87.10;;;;;;5047788;28;20440;-91
2022/07/14 05:38:27;;;;;;;8.40;6.43;;;24.50;83.50;;;;;;5050513;28;20980;-90
2022/07/14 05:40:53;;;;;;;12.80;7.03;;;24.80;81.40;;;;;;5043349;28;20550;-91
2022/07/14 05:43:21;;;;;;;7.30;6.13;;;24.90;79.50;;;;;;5047891;28;20844;-91
2022/07/14 05:45:48;;;;;;;6.83;5.83;;;25.10;77.80;;;;;;5051161;28;20521;-92
2022/07/14 05:48:14;;;;;;;8.77;6.37;;;25.40;76.10;;;;;;5052034;28;20453;-90
2022/07/14 05:50:42;;;;;;;13.17;6.70;;;25.50;74.90;;;;;;5052371;28;20437;-90
2022/07/14 05:53:09;;;;;;;9.70;6.50;;;25.70;73.90;;;;;;5048356;28;20481;-90
2022/07/14 05:55:36;;;;;;;7.93;5.30;;;26.10;72.90;;;;;;5054003;28;20439;-90
2022/07/14 05:58:03;;;;;;;12.23;6.70;;;26.10;72.20;;;;;;5066088;28;20427;-90
2022/07/14 06:00:29;;;;;;;11.83;6.87;;;26.50;70.70;;;;;;5051681;28;20451;-91
2022/07/14 06:02:57;;;;;;;11.63;6.90;;;26.70;69.60;;;;;;5050888;28;20472;-90
2022/07/14 06:05:23;;;;;;;7.10;6.00;;;26.60;68.80;;;;;;5048959;28;20447;-90
2022/07/14 06:07:51;;;;;;;8.17;5.50;;;26.70;68.30;;;;;;5056510;28;20460;-90
2022/07/14 06:10:18;;;;;;;8.70;6.17;;;27.00;67.50;;;;;;5047898;28;20470;-91
2022/07/14 06:12:46;;;;;;;10.83;5.80;;;27.40;65.40;;;;;;5043288;28;20730;-90
2022/07/14 06:15:14;;;;;;;7.40;5.20;;;27.90;63.80;;;;;;5044538;28;20443;-91
2022/07/14 06:17:40;;;;;;;11.37;6.57;;;28.10;62.10;;;;;;5050623;28;20437;-91
2022/07/14 06:20:08;;;;;;;8.10;6.80;;;28.30;60.50;;;;;;5052292;28;20449;-90
2022/07/14 06:22:35;;;;;;;8.53;6.90;;;28.70;59.80;;;;;;5070075;28;20480;-93
2022/07/14 06:25:04;;;;;;;12.80;6.40;;;28.40;59.30;;;;;;5051625;28;20465;-91
2022/07/14 06:27:31;;;;;;;9.43;5.53;;;28.30;58.90;;;;;;5050342;28;20923;-90
2022/07/14 06:29:57;;;;;;;8.77;5.03;;;28.60;59.10;;;;;;5051940;28;20821;-91
2022/07/14 06:32:24;;;;;;;9.23;5.27;;;29.30;58.20;;;;;;5049334;28;20460;-92
2022/07/14 06:34:52;;;;;;;6.63;4.80;;;29.80;57.00;;;;;;5051019;28;20444;-91
2022/07/14 06:37:18;;;;;;;9.90;5.70;;;30.00;55.40;;;;;;5050623;28;20442;-91
2022/07/14 06:39:45;;;;;;;6.03;5.20;;;29.70;55.20;;;;;;5056538;28;20539;-91
2022/07/14 06:42:13;;;;;;;6.10;3.97;;;29.10;55.50;;;;;;5059918;28;20998;-91
2022/07/14 06:44:40;;;;;;;6.57;4.40;;;28.50;56.80;;;;;;5059390;28;20444;-90
2022/07/14 06:47:07;;;;;;;5.50;4.00;;;27.90;58.00;;;;;;5058923;28;20482;-91
2022/07/14 06:49:34;;;;;;;6.13;3.73;;;28.40;58.20;;;;;;5057417;28;20445;-91
2022/07/14 06:52:01;;;;;;;4.50;2.77;;;29.50;56.20;;;;;;5054894;28;20471;-90
2022/07/14 06:54:28;;;;;;;4.53;3.30;;;29.90;54.40;;;;;;5054672;28;20447;-91
2022/07/14 06:56:54;;;;;;;4.80;2.80;;;30.00;54.10;;;;;;5054507;28;20448;-90
2022/07/14 06:59:22;;;;;;;3.90;2.97;;;29.70;54.50;;;;;;5060490;28;20429;-90
2022/07/14 07:01:50;;;;;;;4.90;3.03;;;30.00;53.90;;;;;;5079362;28;20547;-92
2022/07/14 07:04:17;;;;;;;5.50;3.20;;;30.20;53.40;;;;;;5055717;28;20448;-90
2022/07/14 07:06:45;;;;;;;5.93;2.60;;;31.00;52.70;;;;;;5067569;28;20422;-89
2022/07/14 07:09:13;;;;;;;4.83;2.73;;;31.50;51.30;;;;;;5076749;28;20422;-91
2022/07/14 07:11:40;;;;;;;5.80;3.10;;;31.80;50.50;;;;;;5067716;28;20453;-92
2022/07/14 07:14:08;;;;;;;4.73;3.13;;;31.90;50.40;;;;;;5066892;28;20438;-89
2022/07/14 07:16:36;;;;;;;7.73;2.87;;;31.90;50.20;;;;;;5070455;28;20505;-92
2022/07/14 07:19:03;;;;;;;6.47;3.33;;;32.10;49.40;;;;;;5058398;28;20435;-87
2022/07/14 07:21:31;;;;;;;6.83;2.73;;;31.70;50.30;;;;;;5054388;28;20487;-87
2022/07/14 07:23:58;;;;;;;3.67;2.77;;;31.90;50.50;;;;;;5047527;28;20521;-88
2022/07/14 07:26:25;;;;;;;3.60;2.93;;;31.80;50.30;;;;;;5043587;28;20450;-87
2022/07/14 07:28:52;;;;;;;3.50;2.63;;;32.80;49.30;;;;;;5053032;28;20438;-88
2022/07/14 07:31:19;;;;;;;3.80;3.40;;;32.90;48.30;;;;;;5056939;28;20455;-87
2022/07/14 07:33:48;;;;;;;4.67;2.60;;;32.00;49.00;;;;;;5069043;28;20451;-86
2022/07/14 07:36:15;;;;;;;5.27;2.83;;;31.70;49.90;;;;;;5061035;28;20448;-87
2022/07/14 07:38:42;;;;;;;4.73;3.17;;;31.40;50.50;;;;;;5054385;28;20444;-88
2022/07/14 07:41:09;;;;;;;8.77;3.30;;;31.60;50.40;;;;;;5053686;28;20450;-89
2022/07/14 07:43:35;;;;;;;4.43;2.47;;;31.90;51.00;;;;;;5053909;28;20456;-88
2022/07/14 07:46:04;;;;;;;3.80;3.03;;;32.40;50.20;;;;;;5053363;28;20453;-88
2022/07/14 07:48:31;;;;;;;7.40;3.70;;;32.90;48.90;;;;;;5052209;28;20482;-88
2022/07/14 07:50:59;;;;;;;6.17;3.00;;;33.50;48.30;;;;;;5077323;28;20429;-86
2022/07/14 07:53:26;;;;;;;5.90;3.53;;;34.10;47.60;;;;;;5079562;28;20654;-88
2022/07/14 07:55:53;;;;;;;9.03;3.20;;;35.10;46.20;;;;;;5077129;28;20451;-88
2022/07/14 07:58:21;;;;;;;7.27;3.13;;;35.70;44.80;;;;;;5076611;28;20454;-87
2022/07/14 08:00:48;;;;;;;7.43;3.10;;;36.80;43.10;;;;;;5074552;28;20443;-88
2022/07/14 08:03:15;;;;;;;5.17;3.03;;;37.60;41.70;;;;;;5057592;28;20492;-89
2022/07/14 08:05:42;;;;;;;5.97;3.43;;;37.40;40.90;;;;;;5049463;28;20444;-89
2022/07/14 08:08:10;;;;;;;5.20;2.93;;;37.50;40.60;;;;;;5043724;28;20502;-89
2022/07/14 08:10:37;;;;;;;6.83;3.27;;;37.40;40.50;;;;;;5052781;28;20447;-89
2022/07/14 08:13:04;;;;;;;3.63;2.93;;;37.50;40.70;;;;;;5054142;28;20484;-89
2022/07/14 08:15:31;;;;;;;6.30;3.07;;;37.80;39.90;;;;;;5042569;28;20460;-89
2022/07/14 08:17:59;;;;;;;6.83;2.90;;;37.80;39.60;;;;;;5046029;28;20455;-89
2022/07/14 08:20:26;;;;;;;5.57;3.30;;;37.40;39.90;;;;;;5052907;28;20447;-89
2022/07/14 08:22:52;;;;;;;6.40;2.77;;;37.60;39.90;;;;;;5051162;28;20464;-88
2022/07/14 08:25:20;;;;;;;4.87;2.83;;;37.20;40.20;;;;;;5048229;28;20447;-89
2022/07/14 08:27:47;;;;;;;5.13;2.43;;;37.20;40.20;;;;;;5042272;28;20443;-88
2022/07/14 08:30:15;;;;;;;5.60;2.70;;;37.20;40.10;;;;;;5051602;28;20786;-87
2022/07/14 08:32:44;;;;;;;6.30;3.00;;;37.30;39.00;;;;;;5053231;28;20486;-88
2022/07/14 08:35:13;;;;;;;6.83;2.63;;;37.20;39.80;;;;;;5055267;28;20487;-88
2022/07/14 08:37:40;;;;;;;4.73;4.20;;;37.40;40.30;;;;;;5052347;28;20474;-88
2022/07/14 08:40:10;;;;;;;4.53;2.73;;;37.10;39.90;;;;;;5052068;28;20464;-88
2022/07/14 08:42:42;;;;;;;5.60;2.80;;;37.30;40.40;;;;;;5051916;28;20460;-88
2022/07/14 08:45:12;;;;;;;7.27;3.13;;;37.70;39.20;;;;;;5051463;28;20464;-88
2022/07/14 08:47:39;;;;;;;4.40;3.20;;;38.00;39.40;;;;;;5051812;28;20441;-88
2022/07/14 08:50:08;;;;;;;10.40;4.20;;;38.20;38.70;;;;;;5052463;28;20441;-88
2022/07/14 08:52:36;;;;;;;3.80;3.23;;;38.80;38.10;;;;;;5053210;28;20487;-89
2022/07/14 08:55:11;;;;;;;4.90;3.20;;;39.80;36.90;;;;;;5076451;28;20436;-90
2022/07/14 08:57:40;;;;;;;6.10;3.30;;;39.90;36.20;;;;;;5055420;28;20427;-89
2022/07/14 09:00:11;;;;;;;4.63;3.20;;;40.10;36.20;;;;;;5053516;28;20442;-89
2022/07/14 09:02:38;;;;;;;4.20;3.10;;;40.10;36.10;;;;;;5051186;28;20475;-90
2022/07/14 09:05:06;;;;;;;3.80;2.57;;;40.50;35.70;;;;;;5050898;28;20903;-90
2022/07/14 09:07:34;;;;;;;4.00;2.80;;;39.30;36.60;;;;;;5066338;28;20434;-90
2022/07/14 09:10:03;;;;;;;5.80;2.57;;;39.60;36.70;;;;;;5051079;28;20434;-90
2022/07/14 09:12:30;;;;;;;6.80;3.27;;;40.70;35.40;;;;;;5047414;28;20862;-90
2022/07/14 09:17:54;;;;;;;7.63;3.00;;;41.70;33.60;;;;;;5045954;28;20433;-89
2022/07/14 09:20:22;;;;;;;3.77;2.57;;;43.10;32.40;;;;;;5043177;28;20437;-89
2022/07/14 09:22:54;;;;;;;3.50;2.70;;;43.70;30.40;;;;;;5043309;28;20981;-88
2022/07/14 09:25:20;;;;;;;3.23;2.37;;;43.70;29.30;;;;;;5042925;28;20449;-89
2022/07/14 09:27:48;;;;;;;3.63;2.53;;;43.90;28.20;;;;;;5050819;28;20445;-88
2022/07/14 09:30:17;;;;;;;2.90;2.60;;;43.60;27.40;;;;;;5051968;28;20445;-88
2022/07/14 09:32:45;;;;;;;3.67;2.30;;;44.70;27.20;;;;;;5065414;28;20468;-89
2022/07/14 09:35:14;;;;;;;2.43;2.10;;;43.20;26.90;;;;;;5067750;22;20490;-88
2022/07/14 09:37:43;;;;;;;2.53;1.80;;;41.80;27.90;;;;;;5035784;28;20438;-87
2022/07/14 09:40:15;;;;;;;2.93;2.00;;;41.90;27.20;;;;;;5048221;28;20442;-88
2022/07/14 09:42:55;;;;;;;2.83;2.60;;;42.60;27.00;;;;;;5047325;28;20501;-87
2022/07/14 09:45:25;;;;;;;4.13;2.63;;;43.20;25.50;;;;;;5038713;28;20465;-87
2022/07/14 09:47:58;;;;;;;4.50;1.77;;;43.80;25.60;;;;;;5039031;28;20434;-87
2022/07/14 09:50:38;;;;;;;4.77;1.80;;;44.80;23.40;;;;;;5046674;28;20453;-87
2022/07/14 09:53:27;;;;;;;3.73;2.00;;;46.20;22.40;;;;;;5047734;28;20493;-88
2022/07/14 09:55:57;;;;;;;3.10;1.90;;;46.40;21.30;;;;;;5032003;28;20807;-88
2022/07/14 09:58:32;;;;;;;2.93;1.70;;;47.40;21.40;;;;;;5046708;28;20422;-88
2022/07/14 10:01:02;;;;;;;2.87;1.53;;;48.20;20.40;;;;;;5058520;28;20426;-89
2022/07/14 10:03:31;;;;;;;2.90;2.70;;;47.60;19.70;;;;;;5051624;28;20438;-88
2022/07/14 10:06:00;;;;;;;3.43;2.00;;;47.00;20.30;;;;;;5047086;28;20449;-88
2022/07/14 10:08:28;;;;;;;2.87;1.60;;;47.30;20.40;;;;;;5037016;28;20442;-88
2022/07/14 10:10:56;;;;;;;2.23;2.03;;;47.70;20.10;;;;;;5035079;28;20458;-88
2022/07/14 10:13:24;;;;;;;2.47;1.90;;;47.60;20.30;;;;;;5034364;28;20855;-88
2022/07/14 10:15:53;;;;;;;3.00;1.90;;;47.30;20.10;;;;;;5048001;28;20453;-88
2022/07/14 10:18:22;;;;;;;3.23;2.10;;;47.20;20.00;;;;;;5041703;28;20442;-89
2022/07/14 10:20:50;;;;;;;2.80;2.30;;;48.70;19.90;;;;;;5036579;28;20461;-86
2022/07/14 10:23:17;;;;;;;3.33;1.90;;;48.90;19.00;;;;;;5035400;28;20449;-87
2022/07/14 10:25:46;;;;;;;2.67;2.47;;;47.50;19.50;;;;;;5034778;28;20446;-87
2022/07/14 10:28:14;;;;;;;4.90;2.67;;;45.80;20.70;;;;;;5037836;28;20450;-87
2022/07/14 10:30:49;;;;;;;5.53;2.70;;;44.80;21.50;;;;;;5035396;28;21146;-87
2022/07/14 10:33:26;;;;;;;3.73;2.53;;;44.50;22.10;;;;;;5035513;28;20555;-87
2022/07/14 10:36:00;;;;;;;6.00;2.30;;;45.20;21.60;;;;;;5036432;28;20505;-88
2022/07/14 10:38:41;;;;;;;1.63;1.40;;;44.60;21.20;;;;;;5034489;28;20445;-87
2022/07/14 10:41:16;;;;;;;2.43;1.93;;;43.60;21.90;;;;;;5034414;28;20438;-87
2022/07/14 10:43:58;;;;;;;2.50;1.97;;;45.20;21.50;;;;;;5034352;28;20969;-88
2022/07/14 10:46:36;;;;;;;3.53;1.80;;;46.80;20.50;;;;;;5036584;28;20452;-88
2022/07/14 10:49:06;;;;;;;3.37;1.67;;;47.10;20.10;;;;;;5033292;28;20468;-88
2022/07/14 10:51:33;;;;;;;2.57;1.70;;;47.90;19.40;;;;;;5033577;28;20829;-88
2022/07/14 10:54:01;;;;;;;2.87;1.60;;;48.60;18.70;;;;;;5035156;28;21106;-88
2022/07/14 10:56:29;;;;;;;2.33;1.70;;;49.20;18.60;;;;;;5032492;28;20442;-89
2022/07/14 10:59:34;;;;;;;2.30;1.90;;;49.30;18.50;;;;;;5032998;28;20453;-88
2022/07/14 11:02:36;;;;;;;2.50;2.30;;;50.00;18.30;;;;;;5033490;28;20811;-88
2022/07/14 11:05:12;;;;;;;2.87;2.60;;;50.70;17.50;;;;;;5041661;28;20569;-88
2022/07/14 11:07:51;;;;;;;5.63;2.10;;;50.40;17.60;;;;;;5035541;28;20465;-87
2022/07/14 11:11:12;;;;;;;3.90;2.00;;;48.80;17.70;;;;;;5034846;28;20485;-88
2022/07/14 11:14:07;;;;;;;2.53;1.90;;;48.50;18.10;;;;;;5032441;28;21024;-88
2022/07/14 11:16:57;;;;;;;2.20;2.10;;;48.90;18.00;;;;;;5033493;28;20450;-88
2022/07/14 11:19:26;;;;;;;2.20;2.00;;;48.90;18.10;;;;;;5034965;28;20446;-88
2022/07/14 11:22:18;;;;;;;2.03;1.80;;;49.90;17.70;;;;;;5047821;28;20445;-88
2022/07/14 11:24:46;;;;;;;10.23;2.30;;;48.90;17.90;;;;;;5052520;28;20535;-88
2022/07/14 11:27:33;;;;;;;5.57;2.20;;;48.40;18.30;;;;;;5038205;28;20453;-88
2022/07/14 11:30:32;;;;;;;4.20;1.93;;;48.20;18.70;;;;;;5041841;28;20466;-88
2022/07/14 11:33:04;;;;;;;7.00;2.40;;;48.60;18.50;;;;;;5053840;28;20486;-89
2022/07/14 11:38:40;;;;;;;2.60;2.10;;;49.90;18.10;;;;;;5036702;28;20792;-88
2022/07/14 11:41:10;;;;;;;6.53;1.60;;;49.80;17.90;;;;;;5036212;28;21008;-87
2022/07/14 11:43:50;;;;;;;6.40;2.30;;;50.30;17.70;;;;;;5036523;28;20474;-88
2022/07/14 11:46:20;;;;;;;2.50;1.70;;;50.60;17.80;;;;;;5036255;28;20496;-89
2022/07/14 11:48:50;;;;;;;5.00;2.00;;;51.60;16.90;;;;;;5035972;28;20549;-88
2022/07/14 11:51:23;;;;;;;2.57;1.90;;;51.40;17.00;;;;;;5036674;28;20989;-87
2022/07/14 11:53:56;;;;;;;6.80;2.63;;;50.70;17.50;;;;;;5042081;28;20486;-87
2022/07/14 11:56:24;;;;;;;2.50;1.80;;;50.60;17.80;;;;;;5039209;28;20457;-86
2022/07/14 11:58:53;;;;;;;2.80;1.90;;;50.50;17.90;;;;;;5049209;28;20438;-88
2022/07/14 12:01:20;;;;;;;4.57;2.13;;;50.90;17.70;;;;;;5049506;28;20450;-87
2022/07/14 12:03:47;;;;;;;2.67;2.20;;;49.80;18.40;;;;;;5041903;28;20557;-88
2022/07/14 12:06:14;;;;;;;3.90;2.23;;;50.30;18.70;;;;;;5043380;28;20529;-89
2022/07/14 12:08:44;;;;;;;2.87;2.17;;;50.40;18.50;;;;;;5049841;28;20446;-89
2022/07/14 12:11:16;;;;;;;2.90;2.20;;;50.90;18.10;;;;;;5049581;28;20457;-88
2022/07/14 12:13:48;;;;;;;2.33;2.03;;;50.80;18.00;;;;;;5046550;28;20516;-88
2022/07/14 12:16:15;;;;;;;2.97;1.90;;;50.70;18.10;;;;;;5037064;28;20456;-86
2022/07/14 12:18:42;;;;;;;4.70;2.00;;;51.50;17.80;;;;;;5039425;28;20454;-87
2022/07/14 12:21:09;;;;;;;8.77;2.40;;;51.80;17.80;;;;;;5038125;28;20839;-88
2022/07/14 12:23:50;;;;;;;5.10;2.10;;;50.90;17.80;;;;;;5036294;28;20497;-88
2022/07/14 12:26:19;;;;;;;2.87;1.80;;;50.60;17.90;;;;;;5036373;28;20434;-89
2022/07/14 12:28:49;;;;;;;3.50;1.80;;;50.70;17.70;;;;;;5037473;28;20457;-88
2022/07/14 12:31:16;;;;;;;4.27;2.20;;;50.00;17.90;;;;;;5038333;28;20474;-89
2022/07/14 12:33:44;;;;;;;3.50;3.13;;;48.20;18.00;;;;;;5037515;28;20898;-88
2022/07/14 12:36:13;;;;;;;5.00;3.00;;;46.30;19.40;;;;;;5045251;28;20450;-88
2022/07/14 12:38:41;;;;;;;6.93;1.80;;;45.10;20.50;;;;;;5056430;28;20443;-88
2022/07/14 12:41:08;;;;;;;2.53;2.00;;;43.90;21.20;;;;;;5056392;28;20438;-88
2022/07/14 12:43:38;;;;;;;3.17;1.93;;;42.90;22.10;;;;;;5056067;28;20481;-87
2022/07/14 12:46:07;;;;;;;4.83;2.13;;;42.30;22.90;;;;;;5050156;28;20453;-87
2022/07/14 12:48:36;;;;;;;6.10;2.70;;;41.60;23.10;;;;;;5040862;28;20572;-87
2022/07/14 12:51:23;;;;;;;4.40;4.00;;;41.20;23.40;;;;;;5040142;28;20426;-87
2022/07/14 12:54:02;;;;;;;3.93;3.00;;;40.90;23.20;;;;;;5047357;28;20473;-89
2022/07/14 12:56:32;;;;;;;6.07;2.70;;;40.80;23.70;;;;;;5051322;28;20445;-88
2022/07/14 12:59:02;;;;;;;2.80;1.80;;;40.20;23.80;;;;;;5051295;28;20441;-86
2022/07/14 13:01:30;;;;;;;3.10;1.87;;;39.60;24.20;;;;;;5051738;28;20459;-86
2022/07/14 13:03:59;;;;;;;2.70;2.23;;;39.70;25.00;;;;;;5047750;28;20461;-87
2022/07/14 13:06:28;;;;;;;3.10;2.30;;;39.70;25.20;;;;;;5050149;28;20443;-87
2022/07/14 13:08:55;;;;;;;5.13;2.30;;;39.60;25.40;;;;;;5040001;28;20825;-87
2022/07/14 13:11:29;;;;;;;2.43;1.93;;;39.60;24.70;;;;;;5037643;28;20450;-87